SAVC/CRD METAR and TAF weather

Enter ICAO airport designator
Station Type Date Time Source
SAVC METAR 2021/07/26 14:00 UTC NOAA

SAVC 261400Z 26008KT 210V290 CAVOK 06/M04 Q1023


Station Type Date Time Source
SAVC Decoded METAR 2021/07/26 14:00 UTC NOAA

Comodoro Rivadavia Aerodrome, Argentina (SAVC) 45-47S 067-30W 46M
Jul 26, 2021 - 10:00 AM EDT / 2021.07.26 1400 UTC
Wind: from the W (260 degrees) at 9 MPH (8 KT) (direction variable):0
Visibility: greater than 7 mile(s):0
Temperature: 42 F (6 C)
Dew Point: 24 F (-4 C)
Relative Humidity: 48%
Pressure (altimeter): 30.21 in. Hg (1023 hPa)
ob: SAVC 261400Z 26008KT 210V290 CAVOK 06/M04 Q1023
cycle: 14

Station Type Date Time Source
SAVC TAF 2021/07/26 12:21 UTC NOAA

TAF TAF SAVC 261100Z 2612/2712 23020KT 9999 BKN025 TX11/2619Z TN03/2612Z
BECMG 2613/2615 25020G30KT
BECMG 2623/2701 23010KT

Example: see airport list